sensor_id;sensor_type;location;lat;lon;timestamp;pressure;altitude;pressure_sealevel;temperature;humidity
78488;BME280;67885;49.758;9.582;2023-07-31T00:02:08;99077.00;;;22.75;42.27
78488;BME280;67885;49.758;9.582;2023-07-31T00:04:35;99092.16;;;22.83;43.21
78488;BME280;67885;49.758;9.582;2023-07-31T00:07:03;99090.09;;;22.85;43.08
78488;BME280;67885;49.758;9.582;2023-07-31T00:09:31;99088.00;;;22.87;42.32
78488;BME280;67885;49.758;9.582;2023-07-31T00:11:58;99086.38;;;22.86;42.60
78488;BME280;67885;49.758;9.582;2023-07-31T00:14:25;99097.19;;;22.86;43.26
78488;BME280;67885;49.758;9.582;2023-07-31T00:16:51;99091.56;;;22.87;42.87
78488;BME280;67885;49.758;9.582;2023-07-31T00:19:18;99081.59;;;22.88;43.02
78488;BME280;67885;49.758;9.582;2023-07-31T00:21:45;99075.16;;;22.89;42.25
78488;BME280;67885;49.758;9.582;2023-07-31T00:24:12;99078.50;;;22.84;42.45
78488;BME280;67885;49.758;9.582;2023-07-31T00:26:39;99075.34;;;22.81;41.83
78488;BME280;67885;49.758;9.582;2023-07-31T00:29:06;99077.03;;;22.82;42.52
78488;BME280;67885;49.758;9.582;2023-07-31T00:31:32;99073.06;;;22.78;42.15
78488;BME280;67885;49.758;9.582;2023-07-31T00:33:59;99084.47;;;22.73;42.95
78488;BME280;67885;49.758;9.582;2023-07-31T00:36:25;99080.31;;;22.70;43.12
78488;BME280;67885;49.758;9.582;2023-07-31T00:38:52;99079.69;;;22.68;42.85
78488;BME280;67885;49.758;9.582;2023-07-31T00:41:20;99085.69;;;22.64;42.55
78488;BME280;67885;49.758;9.582;2023-07-31T00:43:47;99080.28;;;22.64;42.25
78488;BME280;67885;49.758;9.582;2023-07-31T00:46:13;99063.25;;;22.50;43.09
78488;BME280;67885;49.758;9.582;2023-07-31T00:48:40;99077.59;;;22.64;43.07
78488;BME280;67885;49.758;9.582;2023-07-31T00:51:07;99070.13;;;22.59;43.16
78488;BME280;67885;49.758;9.582;2023-07-31T00:53:34;99059.53;;;22.51;42.95
78488;BME280;67885;49.758;9.582;2023-07-31T00:56:02;99028.06;;;22.23;43.00
78488;BME280;67885;49.758;9.582;2023-07-31T00:58:31;99042.66;;;22.35;43.14
78488;BME280;67885;49.758;9.582;2023-07-31T01:00:57;99053.28;;;22.44;42.86
78488;BME280;67885;49.758;9.582;2023-07-31T01:03:24;99063.03;;;22.45;42.16
78488;BME280;67885;49.758;9.582;2023-07-31T01:06:02;99065.09;;;22.43;42.57
78488;BME280;67885;49.758;9.582;2023-07-31T01:08:40;99069.66;;;22.42;43.29
78488;BME280;67885;49.758;9.582;2023-07-31T01:11:16;99034.09;;;22.25;42.90
78488;BME280;67885;49.758;9.582;2023-07-31T01:13:45;99057.22;;;22.41;43.15
78488;BME280;67885;49.758;9.582;2023-07-31T01:16:12;99050.16;;;22.40;43.15
78488;BME280;67885;49.758;9.582;2023-07-31T01:18:39;99052.84;;;22.40;43.48
78488;BME280;67885;49.758;9.582;2023-07-31T01:21:21;99046.59;;;22.39;43.47
78488;BME280;67885;49.758;9.582;2023-07-31T01:24:20;99046.44;;;22.41;44.09
78488;BME280;67885;49.758;9.582;2023-07-31T01:26:56;99011.47;;;22.19;43.73
78488;BME280;67885;49.758;9.582;2023-07-31T01:29:32;99036.44;;;22.35;44.08
78488;BME280;67885;49.758;9.582;2023-07-31T01:32:06;99035.63;;;22.34;43.91
78488;BME280;67885;49.758;9.582;2023-07-31T01:34:35;99007.91;;;22.19;43.79
78488;BME280;67885;49.758;9.582;2023-07-31T01:37:03;99032.44;;;22.31;43.60
78488;BME280;67885;49.758;9.582;2023-07-31T01:39:30;99033.47;;;22.30;43.09
78488;BME280;67885;49.758;9.582;2023-07-31T01:41:58;99028.72;;;22.25;43.70
78488;BME280;67885;49.758;9.582;2023-07-31T01:44:24;99032.00;;;22.20;44.47
78488;BME280;67885;49.758;9.582;2023-07-31T01:46:51;99031.16;;;22.20;43.92
78488;BME280;67885;49.758;9.582;2023-07-31T01:49:18;99026.44;;;22.22;43.83
78488;BME280;67885;49.758;9.582;2023-07-31T01:51:44;99025.38;;;22.23;43.79
78488;BME280;67885;49.758;9.582;2023-07-31T01:54:11;99025.56;;;22.21;43.79
78488;BME280;67885;49.758;9.582;2023-07-31T01:56:37;99027.25;;;22.22;44.25
78488;BME280;67885;49.758;9.582;2023-07-31T01:59:05;99026.44;;;22.22;43.76
78488;BME280;67885;49.758;9.582;2023-07-31T02:01:32;99026.22;;;22.23;43.96
78488;BME280;67885;49.758;9.582;2023-07-31T02:03:59;99022.66;;;22.23;43.56
78488;BME280;67885;49.758;9.582;2023-07-31T02:06:25;99019.34;;;22.21;43.62
78488;BME280;67885;49.758;9.582;2023-07-31T02:08:52;99015.81;;;22.20;44.06
78488;BME280;67885;49.758;9.582;2023-07-31T02:11:18;99011.47;;;22.19;44.60
78488;BME280;67885;49.758;9.582;2023-07-31T02:13:45;99013.75;;;22.22;44.26
78488;BME280;67885;49.758;9.582;2023-07-31T02:16:13;98972.63;;;22.00;44.04
78488;BME280;67885;49.758;9.582;2023-07-31T02:18:40;99006.69;;;22.21;44.13
78488;BME280;67885;49.758;9.582;2023-07-31T02:21:06;98996.94;;;22.20;43.72
78488;BME280;67885;49.758;9.582;2023-07-31T02:23:33;98997.13;;;22.19;44.18
78488;BME280;67885;49.758;9.582;2023-07-31T02:26:00;98989.47;;;22.16;43.93
78488;BME280;67885;49.758;9.582;2023-07-31T02:28:26;98991.34;;;22.15;44.14
78488;BME280;67885;49.758;9.582;2023-07-31T02:30:53;98993.59;;;22.12;43.86
78488;BME280;67885;49.758;9.582;2023-07-31T02:33:21;98981.13;;;22.11;44.50
78488;BME280;67885;49.758;9.582;2023-07-31T02:35:47;98992.13;;;22.09;43.97
78488;BME280;67885;49.758;9.582;2023-07-31T02:38:14;98984.03;;;22.09;44.58
78488;BME280;67885;49.758;9.582;2023-07-31T02:40:41;98988.63;;;22.09;44.30
78488;BME280;67885;49.758;9.582;2023-07-31T02:43:07;98970.09;;;21.99;45.04
78488;BME280;67885;49.758;9.582;2023-07-31T02:45:34;98993.16;;;22.08;43.98
78488;BME280;67885;49.758;9.582;2023-07-31T02:48:01;98991.53;;;22.07;44.47
78488;BME280;67885;49.758;9.582;2023-07-31T02:50:29;98988.19;;;22.05;44.57
78488;BME280;67885;49.758;9.582;2023-07-31T02:52:55;98987.38;;;22.04;45.18
78488;BME280;67885;49.758;9.582;2023-07-31T02:55:22;98976.97;;;22.01;44.53
78488;BME280;67885;49.758;9.582;2023-07-31T02:57:48;98983.59;;;21.99;44.87
78488;BME280;67885;49.758;9.582;2023-07-31T03:00:17;98980.28;;;21.97;44.62
78488;BME280;67885;49.758;9.582;2023-07-31T03:02:44;98970.50;;;21.96;45.25
78488;BME280;67885;49.758;9.582;2023-07-31T03:05:10;98973.22;;;21.96;45.52
78488;BME280;67885;49.758;9.582;2023-07-31T03:07:38;98973.84;;;21.98;45.57
78488;BME280;67885;49.758;9.582;2023-07-31T03:10:06;98973.84;;;21.98;44.62
78488;BME280;67885;49.758;9.582;2023-07-31T03:12:33;98973.00;;;21.97;45.74
78488;BME280;67885;49.758;9.582;2023-07-31T03:14:59;98971.78;;;22.00;44.82
78488;BME280;67885;49.758;9.582;2023-07-31T03:17:26;98972.41;;;22.02;44.72
78488;BME280;67885;49.758;9.582;2023-07-31T03:19:52;98986.94;;;22.01;45.80
78488;BME280;67885;49.758;9.582;2023-07-31T03:22:19;98982.34;;;22.01;45.47
78488;BME280;67885;49.758;9.582;2023-07-31T03:24:47;98985.03;;;22.01;45.03
78488;BME280;67885;49.758;9.582;2023-07-31T03:27:14;98980.72;;;22.00;45.09
78488;BME280;67885;49.758;9.582;2023-07-31T03:29:40;98984.03;;;22.02;45.29
78488;BME280;67885;49.758;9.582;2023-07-31T03:32:07;98981.09;;;21.97;45.72
78488;BME280;67885;49.758;9.582;2023-07-31T03:34:34;98977.13;;;21.93;45.86
78488;BME280;67885;49.758;9.582;2023-07-31T03:37:00;98978.81;;;21.94;45.62
78488;BME280;67885;49.758;9.582;2023-07-31T03:39:27;98985.22;;;21.93;45.68
78488;BME280;67885;49.758;9.582;2023-07-31T03:41:55;98988.97;;;21.92;45.81
78488;BME280;67885;49.758;9.582;2023-07-31T03:44:22;98986.66;;;21.89;45.62
78488;BME280;67885;49.758;9.582;2023-07-31T03:46:48;98987.69;;;21.88;45.61
78488;BME280;67885;49.758;9.582;2023-07-31T03:49:15;98986.06;;;21.87;45.80
78488;BME280;67885;49.758;9.582;2023-07-31T03:51:42;98985.00;;;21.88;45.76
78488;BME280;67885;49.758;9.582;2023-07-31T03:54:08;98985.63;;;21.83;46.05
78488;BME280;67885;49.758;9.582;2023-07-31T03:56:35;98986.84;;;21.81;46.17
78488;BME280;67885;49.758;9.582;2023-07-31T03:59:05;98986.63;;;21.76;46.17
78488;BME280;67885;49.758;9.582;2023-07-31T04:01:31;98982.88;;;21.70;46.08
78488;BME280;67885;49.758;9.582;2023-07-31T04:03:58;98975.19;;;21.67;45.69
78488;BME280;67885;49.758;9.582;2023-07-31T04:06:24;98970.00;;;21.65;46.00
78488;BME280;67885;49.758;9.582;2023-07-31T04:08:51;98963.56;;;21.60;46.26
78488;BME280;67885;49.758;9.582;2023-07-31T04:11:18;98961.03;;;21.58;46.06
78488;BME280;67885;49.758;9.582;2023-07-31T04:13:44;98971.81;;;21.58;46.70
78488;BME280;67885;49.758;9.582;2023-07-31T04:16:12;98963.88;;;21.50;45.99
78488;BME280;67885;49.758;9.582;2023-07-31T04:18:39;98967.69;;;21.55;46.06
78488;BME280;67885;49.758;9.582;2023-07-31T04:21:05;98982.19;;;21.54;46.10
78488;BME280;67885;49.758;9.582;2023-07-31T04:23:32;98974.66;;;21.50;46.75
78488;BME280;67885;49.758;9.582;2023-07-31T04:25:59;98986.47;;;21.49;46.62
78488;BME280;67885;49.758;9.582;2023-07-31T04:28:25;98989.16;;;21.49;46.53
78488;BME280;67885;49.758;9.582;2023-07-31T04:30:52;98991.00;;;21.48;47.00
78488;BME280;67885;49.758;9.582;2023-07-31T04:33:20;98988.13;;;21.50;48.54
78488;BME280;67885;49.758;9.582;2023-07-31T04:35:50;98929.28;;;21.12;49.39
78488;BME280;67885;49.758;9.582;2023-07-31T04:38:18;98984.81;;;21.48;49.24
78488;BME280;67885;49.758;9.582;2023-07-31T04:40:45;98991.88;;;21.49;49.06
78488;BME280;67885;49.758;9.582;2023-07-31T04:43:11;98974.41;;;21.38;48.32
78488;BME280;67885;49.758;9.582;2023-07-31T04:45:38;98986.28;;;21.50;50.21
78488;BME280;67885;49.758;9.582;2023-07-31T04:48:05;98991.47;;;21.52;50.21
78488;BME280;67885;49.758;9.582;2023-07-31T04:50:33;98985.50;;;21.56;50.96
78488;BME280;67885;49.758;9.582;2023-07-31T04:52:59;98980.81;;;21.72;50.06
78488;BME280;67885;49.758;9.582;2023-07-31T04:55:26;98986.88;;;21.87;50.00
78488;BME280;67885;49.758;9.582;2023-07-31T04:57:53;98974.47;;;22.00;49.00
78488;BME280;67885;49.758;9.582;2023-07-31T05:00:19;98980.94;;;22.12;48.30
78488;BME280;67885;49.758;9.582;2023-07-31T05:02:46;98970.75;;;22.08;48.80
78488;BME280;67885;49.758;9.582;2023-07-31T05:05:13;98971.81;;;22.20;48.30
78488;BME280;67885;49.758;9.582;2023-07-31T05:07:41;98965.41;;;22.28;48.19
78488;BME280;67885;49.758;9.582;2023-07-31T05:10:08;98961.66;;;22.29;48.20
78488;BME280;67885;49.758;9.582;2023-07-31T05:12:35;98960.03;;;22.28;47.06
78488;BME280;67885;49.758;9.582;2023-07-31T05:15:01;98965.00;;;22.24;47.71
78488;BME280;67885;49.758;9.582;2023-07-31T05:17:28;98963.13;;;22.18;46.59
78488;BME280;67885;49.758;9.582;2023-07-31T05:19:55;98957.50;;;22.13;47.64
78488;BME280;67885;49.758;9.582;2023-07-31T05:22:21;98953.13;;;22.05;47.09
78488;BME280;67885;49.758;9.582;2023-07-31T05:24:49;98962.63;;;21.94;47.57
78488;BME280;67885;49.758;9.582;2023-07-31T05:27:16;98964.69;;;21.85;47.68
78488;BME280;67885;49.758;9.582;2023-07-31T05:29:43;98960.91;;;21.80;48.06
78488;BME280;67885;49.758;9.582;2023-07-31T05:32:10;98961.53;;;21.75;48.22
78488;BME280;67885;49.758;9.582;2023-07-31T05:34:37;98962.16;;;21.70;48.34
78488;BME280;67885;49.758;9.582;2023-07-31T05:37:04;98966.28;;;21.66;47.07
78488;BME280;67885;49.758;9.582;2023-07-31T05:39:31;98958.97;;;21.60;47.22
78488;BME280;67885;49.758;9.582;2023-07-31T05:41:59;98955.22;;;21.54;47.81
78488;BME280;67885;49.758;9.582;2023-07-31T05:44:25;98951.50;;;21.55;48.30
78488;BME280;67885;49.758;9.582;2023-07-31T05:46:52;98961.66;;;21.53;48.47
78488;BME280;67885;49.758;9.582;2023-07-31T05:49:19;98961.44;;;21.55;47.92
78488;BME280;67885;49.758;9.582;2023-07-31T05:51:45;98953.94;;;21.50;47.48
78488;BME280;67885;49.758;9.582;2023-07-31T05:54:12;98956.00;;;21.48;47.63
78488;BME280;67885;49.758;9.582;2023-07-31T05:56:38;98948.75;;;21.49;47.93
78488;BME280;67885;49.758;9.582;2023-07-31T05:59:08;98956.84;;;21.49;48.11
78488;BME280;67885;49.758;9.582;2023-07-31T06:01:34;98950.22;;;21.51;47.37
78488;BME280;67885;49.758;9.582;2023-07-31T06:04:01;98934.03;;;21.45;48.63
78488;BME280;67885;49.758;9.582;2023-07-31T06:06:28;98952.78;;;21.60;48.22
78488;BME280;67885;49.758;9.582;2023-07-31T06:08:55;98950.94;;;21.67;47.12
78488;BME280;67885;49.758;9.582;2023-07-31T06:11:22;98962.31;;;21.69;47.37
78488;BME280;67885;49.758;9.582;2023-07-31T06:13:48;98955.31;;;21.75;47.22
78488;BME280;67885;49.758;9.582;2023-07-31T06:16:17;98955.13;;;21.83;47.52
78488;BME280;67885;49.758;9.582;2023-07-31T06:18:43;98953.69;;;21.87;47.40
78488;BME280;67885;49.758;9.582;2023-07-31T06:21:10;98903.63;;;21.58;47.85
78488;BME280;67885;49.758;9.582;2023-07-31T06:23:37;98956.81;;;21.97;47.27
78488;BME280;67885;49.758;9.582;2023-07-31T06:26:03;98965.34;;;22.01;46.75
78488;BME280;67885;49.758;9.582;2023-07-31T06:28:31;98948.97;;;22.02;47.06
78488;BME280;67885;49.758;9.582;2023-07-31T06:30:58;98955.63;;;22.06;47.37
78488;BME280;67885;49.758;9.582;2023-07-31T06:33:27;98970.56;;;22.09;47.57
78488;BME280;67885;49.758;9.582;2023-07-31T06:35:54;98967.06;;;22.15;46.77
78488;BME280;67885;49.758;9.582;2023-07-31T06:38:24;98963.75;;;22.20;46.95
78488;BME280;67885;49.758;9.582;2023-07-31T06:40:51;98966.66;;;22.25;45.98
78488;BME280;67885;49.758;9.582;2023-07-31T06:43:18;98972.66;;;22.27;46.18
78488;BME280;67885;49.758;9.582;2023-07-31T06:45:45;98963.34;;;22.30;45.68
78488;BME280;67885;49.758;9.582;2023-07-31T06:48:13;98966.28;;;22.35;46.75
78488;BME280;67885;49.758;9.582;2023-07-31T06:50:41;98966.72;;;22.38;46.44
78488;BME280;67885;49.758;9.582;2023-07-31T06:53:08;98972.09;;;22.38;45.48
78488;BME280;67885;49.758;9.582;2023-07-31T06:55:35;98961.31;;;22.38;46.25
78488;BME280;67885;49.758;9.582;2023-07-31T06:58:01;98956.31;;;22.42;45.58
78488;BME280;67885;49.758;9.582;2023-07-31T07:00:29;98949.69;;;22.45;46.16
78488;BME280;67885;49.758;9.582;2023-07-31T07:02:56;98943.03;;;22.47;45.15
78488;BME280;67885;49.758;9.582;2023-07-31T07:05:22;98938.50;;;22.48;46.11
78488;BME280;67885;49.758;9.582;2023-07-31T07:07:50;98953.25;;;22.52;45.84
78488;BME280;67885;49.758;9.582;2023-07-31T07:10:17;98954.66;;;22.54;46.28
78488;BME280;67885;49.758;9.582;2023-07-31T07:12:44;98946.56;;;22.61;46.04
78488;BME280;67885;49.758;9.582;2023-07-31T07:15:10;98949.47;;;22.66;45.94
78488;BME280;67885;49.758;9.582;2023-07-31T07:17:37;98940.16;;;22.69;46.12
78488;BME280;67885;49.758;9.582;2023-07-31T07:20:05;98942.63;;;22.84;44.88
78488;BME280;67885;49.758;9.582;2023-07-31T07:22:32;98944.28;;;22.85;45.45
78488;BME280;67885;49.758;9.582;2023-07-31T07:25:00;98944.50;;;22.90;44.79
78488;BME280;67885;49.758;9.582;2023-07-31T07:27:26;98946.34;;;22.96;44.86
78488;BME280;67885;49.758;9.582;2023-07-31T07:29:53;98945.53;;;23.02;45.40
78488;BME280;67885;49.758;9.582;2023-07-31T07:32:20;98950.28;;;23.07;45.00
78488;BME280;67885;49.758;9.582;2023-07-31T07:34:48;98915.59;;;22.97;45.26
78488;BME280;67885;49.758;9.582;2023-07-31T07:37:15;98946.78;;;23.13;45.57
78488;BME280;67885;49.758;9.582;2023-07-31T07:39:42;98947.16;;;23.17;45.45
78488;BME280;67885;49.758;9.582;2023-07-31T07:42:10;98934.50;;;23.17;46.06
78488;BME280;67885;49.758;9.582;2023-07-31T07:44:37;98934.50;;;23.17;44.69
78488;BME280;67885;49.758;9.582;2023-07-31T07:47:04;98904.38;;;23.00;44.86
78488;BME280;67885;49.758;9.582;2023-07-31T07:49:32;98925.78;;;23.15;44.51
78488;BME280;67885;49.758;9.582;2023-07-31T07:51:59;98938.25;;;23.16;45.11
78488;BME280;67885;49.758;9.582;2023-07-31T07:54:26;98932.41;;;23.13;45.48
78488;BME280;67885;49.758;9.582;2023-07-31T07:56:52;98910.63;;;23.01;45.13
78488;BME280;67885;49.758;9.582;2023-07-31T07:59:20;98925.16;;;23.13;45.31
78488;BME280;67885;49.758;9.582;2023-07-31T08:01:47;98925.34;;;23.12;45.58
78488;BME280;67885;49.758;9.582;2023-07-31T08:04:13;98924.13;;;23.14;45.05
78488;BME280;67885;49.758;9.582;2023-07-31T08:06:40;98928.88;;;23.19;45.64
78488;BME280;67885;49.758;9.582;2023-07-31T08:09:07;98925.97;;;23.20;45.74
78488;BME280;67885;49.758;9.582;2023-07-31T08:11:34;98930.13;;;23.23;44.04
78488;BME280;67885;49.758;9.582;2023-07-31T08:14:01;98928.06;;;23.18;45.14
78488;BME280;67885;49.758;9.582;2023-07-31T08:16:29;98928.47;;;23.22;45.07
78488;BME280;67885;49.758;9.582;2023-07-31T08:18:56;98927.00;;;23.26;45.12
78488;BME280;67885;49.758;9.582;2023-07-31T08:21:22;98868.88;;;22.90;44.99
78488;BME280;67885;49.758;9.582;2023-07-31T08:23:49;98918.03;;;23.32;45.13
78488;BME280;67885;49.758;9.582;2023-07-31T08:26:16;98913.44;;;23.39;45.16
78488;BME280;67885;49.758;9.582;2023-07-31T08:28:43;98907.78;;;23.48;44.74
78488;BME280;67885;49.758;9.582;2023-07-31T08:31:09;98908.78;;;23.53;45.32
78488;BME280;67885;49.758;9.582;2023-07-31T08:33:37;98908.16;;;23.58;45.45
78488;BME280;67885;49.758;9.582;2023-07-31T08:36:05;98910.44;;;23.61;44.67
78488;BME280;67885;49.758;9.582;2023-07-31T08:38:33;98906.28;;;23.58;44.90
78488;BME280;67885;49.758;9.582;2023-07-31T08:40:59;98905.88;;;23.62;45.15
78488;BME280;67885;49.758;9.582;2023-07-31T08:43:27;98909.97;;;23.71;45.04
78488;BME280;67885;49.758;9.582;2023-07-31T08:45:54;98904.31;;;23.79;44.50
78488;BME280;67885;49.758;9.582;2023-07-31T08:48:23;98902.19;;;23.88;45.03
78488;BME280;67885;49.758;9.582;2023-07-31T08:50:52;98903.00;;;23.95;45.07
78488;BME280;67885;49.758;9.582;2023-07-31T08:53:19;98901.94;;;24.03;44.08
78488;BME280;67885;49.758;9.582;2023-07-31T08:55:47;98892.53;;;24.05;43.87
78488;BME280;67885;49.758;9.582;2023-07-31T08:58:15;98893.81;;;24.03;43.84
78488;BME280;67885;49.758;9.582;2023-07-31T09:00:46;98888.41;;;24.03;43.34
78488;BME280;67885;49.758;9.582;2023-07-31T09:03:14;98883.00;;;24.03;44.92
78488;BME280;67885;49.758;9.582;2023-07-31T09:05:43;98881.50;;;24.07;44.06
78488;BME280;67885;49.758;9.582;2023-07-31T09:08:14;98856.84;;;23.83;44.47
78488;BME280;67885;49.758;9.582;2023-07-31T09:10:45;98877.91;;;24.13;43.91
78488;BME280;67885;49.758;9.582;2023-07-31T09:13:12;98879.34;;;24.16;44.50
78488;BME280;67885;49.758;9.582;2023-07-31T09:15:39;98878.09;;;24.18;44.06
78488;BME280;67885;49.758;9.582;2023-07-31T09:18:07;98877.00;;;24.26;43.31
78488;BME280;67885;49.758;9.582;2023-07-31T09:20:34;98875.91;;;24.34;43.56
78488;BME280;67885;49.758;9.582;2023-07-31T09:23:09;98883.78;;;24.35;43.60
78488;BME280;67885;49.758;9.582;2023-07-31T09:25:38;98875.56;;;24.49;43.27
78488;BME280;67885;49.758;9.582;2023-07-31T09:28:06;98867.81;;;24.52;42.86
78488;BME280;67885;49.758;9.582;2023-07-31T09:30:45;98858.19;;;24.56;42.54
78488;BME280;67885;49.758;9.582;2023-07-31T09:33:12;98858.59;;;24.60;42.76
78488;BME280;67885;49.758;9.582;2023-07-31T09:35:39;98831.41;;;24.48;42.06
78488;BME280;67885;49.758;9.582;2023-07-31T09:38:09;98861.94;;;24.62;43.16
78488;BME280;67885;49.758;9.582;2023-07-31T09:40:39;98865.47;;;24.63;42.53
78488;BME280;67885;49.758;9.582;2023-07-31T09:43:07;98859.00;;;24.64;41.84
78488;BME280;67885;49.758;9.582;2023-07-31T09:45:36;98856.53;;;24.62;41.34
78488;BME280;67885;49.758;9.582;2023-07-31T09:48:07;98860.44;;;24.66;42.31
78488;BME280;67885;49.758;9.582;2023-07-31T09:50:37;98860.56;;;24.71;42.78
78488;BME280;67885;49.758;9.582;2023-07-31T09:53:03;98863.91;;;24.73;41.64
78488;BME280;67885;49.758;9.582;2023-07-31T09:55:30;98853.66;;;24.75;41.85
78488;BME280;67885;49.758;9.582;2023-07-31T09:58:00;98859.31;;;24.74;41.54
78488;BME280;67885;49.758;9.582;2023-07-31T10:00:30;98852.25;;;24.73;41.75
78488;BME280;67885;49.758;9.582;2023-07-31T10:02:59;98820.22;;;24.45;41.38
78488;BME280;67885;49.758;9.582;2023-07-31T10:05:31;98848.16;;;24.82;42.30
78488;BME280;67885;49.758;9.582;2023-07-31T10:08:00;98845.78;;;24.92;40.96
78488;BME280;67885;49.758;9.582;2023-07-31T10:10:27;98813.19;;;24.81;40.66
78488;BME280;67885;49.758;9.582;2023-07-31T10:12:56;98834.94;;;24.92;40.95
78488;BME280;67885;49.758;9.582;2023-07-31T10:15:25;98842.25;;;24.92;40.17
78488;BME280;67885;49.758;9.582;2023-07-31T10:17:54;98836.44;;;24.88;40.46
78488;BME280;67885;49.758;9.582;2023-07-31T10:20:22;98830.41;;;24.86;40.60
78488;BME280;67885;49.758;9.582;2023-07-31T10:22:51;98833.59;;;24.83;40.02
78488;BME280;67885;49.758;9.582;2023-07-31T10:25:19;98825.91;;;24.80;40.90
78488;BME280;67885;49.758;9.582;2023-07-31T10:27:49;98815.75;;;24.75;40.90
78488;BME280;67885;49.758;9.582;2023-07-31T10:30:19;98814.47;;;24.78;40.52
78488;BME280;67885;49.758;9.582;2023-07-31T10:32:49;98826.72;;;24.81;40.58
78488;BME280;67885;49.758;9.582;2023-07-31T10:35:17;98815.66;;;24.82;40.65
78488;BME280;67885;49.758;9.582;2023-07-31T10:37:44;98823.59;;;24.84;40.76
78488;BME280;67885;49.758;9.582;2023-07-31T10:40:19;98818.31;;;24.89;39.84
78488;BME280;67885;49.758;9.582;2023-07-31T10:42:51;98806.56;;;24.95;41.06
78488;BME280;67885;49.758;9.582;2023-07-31T10:45:25;98821.47;;;25.04;40.42
78488;BME280;67885;49.758;9.582;2023-07-31T10:48:00;98813.13;;;25.06;40.07
78488;BME280;67885;49.758;9.582;2023-07-31T10:50:28;98812.44;;;25.11;39.91
78488;BME280;67885;49.758;9.582;2023-07-31T10:52:58;98807.63;;;25.13;38.80
78488;BME280;67885;49.758;9.582;2023-07-31T10:55:28;98802.19;;;25.13;39.91
78488;BME280;67885;49.758;9.582;2023-07-31T10:57:57;98728.56;;;24.67;40.03
78488;BME280;67885;49.758;9.582;2023-07-31T11:00:28;98802.13;;;25.19;39.11
78488;BME280;67885;49.758;9.582;2023-07-31T11:03:01;98716.63;;;24.74;39.54
78488;BME280;67885;49.758;9.582;2023-07-31T11:05:45;98779.97;;;25.22;39.93
78488;BME280;67885;49.758;9.582;2023-07-31T11:08:13;98789.06;;;25.28;40.08
78488;BME280;67885;49.758;9.582;2023-07-31T11:10:40;98778.84;;;25.30;39.46
78488;BME280;67885;49.758;9.582;2023-07-31T11:13:07;98778.41;;;25.33;39.56
78488;BME280;67885;49.758;9.582;2023-07-31T11:15:33;98783.59;;;25.35;39.75
78488;BME280;67885;49.758;9.582;2023-07-31T11:18:02;98782.78;;;25.34;39.21
78488;BME280;67885;49.758;9.582;2023-07-31T11:20:31;98782.34;;;25.31;38.30
78488;BME280;67885;49.758;9.582;2023-07-31T11:22:59;98789.06;;;25.28;39.26
78488;BME280;67885;49.758;9.582;2023-07-31T11:25:26;98781.78;;;25.29;39.14
78488;BME280;67885;49.758;9.582;2023-07-31T11:27:53;98767.69;;;25.20;38.88
78488;BME280;67885;49.758;9.582;2023-07-31T11:30:21;98773.66;;;25.29;39.21
78488;BME280;67885;49.758;9.582;2023-07-31T11:32:48;98735.34;;;25.06;39.61
78488;BME280;67885;49.758;9.582;2023-07-31T11:35:16;98777.13;;;25.36;38.55
78488;BME280;67885;49.758;9.582;2023-07-31T11:37:44;98771.22;;;25.39;39.60
78488;BME280;67885;49.758;9.582;2023-07-31T11:40:11;98772.31;;;25.50;39.61
78488;BME280;67885;49.758;9.582;2023-07-31T11:42:38;98769.97;;;25.53;39.75
78488;BME280;67885;49.758;9.582;2023-07-31T11:45:05;98762.69;;;25.66;39.15
78488;BME280;67885;49.758;9.582;2023-07-31T11:47:32;98764.50;;;25.84;39.14
78488;BME280;67885;49.758;9.582;2023-07-31T11:50:01;98761.81;;;25.96;38.95
78488;BME280;67885;49.758;9.582;2023-07-31T11:52:33;98754.41;;;26.03;37.86
78488;BME280;67885;49.758;9.582;2023-07-31T11:55:02;98756.50;;;26.01;37.76
78488;BME280;67885;49.758;9.582;2023-07-31T11:57:29;98763.47;;;25.97;38.27
78488;BME280;67885;49.758;9.582;2023-07-31T11:59:57;98760.38;;;25.93;38.81
78488;BME280;67885;49.758;9.582;2023-07-31T12:02:24;98750.13;;;25.95;39.26
78488;BME280;67885;49.758;9.582;2023-07-31T12:04:51;98759.00;;;26.02;39.36
78488;BME280;67885;49.758;9.582;2023-07-31T12:07:18;98756.31;;;26.02;39.58
78488;BME280;67885;49.758;9.582;2023-07-31T12:09:53;98755.81;;;26.05;38.66
78488;BME280;67885;49.758;9.582;2023-07-31T12:12:21;98752.06;;;26.06;39.36
78488;BME280;67885;49.758;9.582;2023-07-31T12:14:48;98749.34;;;26.18;39.97
78488;BME280;67885;49.758;9.582;2023-07-31T12:17:17;98729.38;;;26.24;37.84
78488;BME280;67885;49.758;9.582;2023-07-31T12:19:45;98727.03;;;26.40;38.73
78488;BME280;67885;49.758;9.582;2023-07-31T12:22:12;98703.78;;;26.20;37.98
78488;BME280;67885;49.758;9.582;2023-07-31T12:24:39;98730.91;;;26.44;37.49
78488;BME280;67885;49.758;9.582;2023-07-31T12:27:12;98746.50;;;26.37;37.34
78488;BME280;67885;49.758;9.582;2023-07-31T12:29:39;98731.75;;;26.33;37.56
78488;BME280;67885;49.758;9.582;2023-07-31T12:32:19;98732.09;;;26.24;37.99
78488;BME280;67885;49.758;9.582;2023-07-31T12:34:46;98738.75;;;26.17;38.25
78488;BME280;67885;49.758;9.582;2023-07-31T12:37:12;98735.28;;;26.09;39.47
78488;BME280;67885;49.758;9.582;2023-07-31T12:39:39;98728.69;;;26.05;41.38
78488;BME280;67885;49.758;9.582;2023-07-31T12:42:06;98721.59;;;25.92;41.79
78488;BME280;67885;49.758;9.582;2023-07-31T12:44:34;98729.72;;;25.81;43.10
78488;BME280;67885;49.758;9.582;2023-07-31T12:47:01;98728.53;;;25.77;43.91
78488;BME280;67885;49.758;9.582;2023-07-31T12:49:27;98725.00;;;25.76;44.29
78488;BME280;67885;49.758;9.582;2023-07-31T12:51:54;98713.66;;;25.79;43.26
78488;BME280;67885;49.758;9.582;2023-07-31T12:54:20;98711.09;;;25.84;44.80
78488;BME280;67885;49.758;9.582;2023-07-31T12:56:47;98706.22;;;25.86;43.50
78488;BME280;67885;49.758;9.582;2023-07-31T12:59:14;98700.00;;;25.86;43.21
78488;BME280;67885;49.758;9.582;2023-07-31T13:01:42;98691.25;;;25.84;42.14
78488;BME280;67885;49.758;9.582;2023-07-31T13:04:08;98688.66;;;25.89;41.69